RCTPRCFN

Guest
Details From RCTP - Taiwan Taoyuan International
To RCFN - FENGNIN
Flight Number -
Tags generated
Created
Modified
Stats Distance 141 nm / 261 km
Max Altitude 14,700 ft / 4,481 m
Waypoints 3
Social Downloads 2
Likes 0
Share VATSIM

Download

Looking for another format? Having issues loading an existing format? Contact us
Advertisement - Login to hide

Notes

Basic altitude profile: - Ascent Rate: 2500ft/min - Ascent Speed: 250kts - Cruise Altitude: 35000ft - Cruise Speed: 420kts - Descent Rate: 1500ft/min - Descent Speed: 250kts Options: - Use NATs: yes - Use PACOTS: yes - Use low airways: yes - Use high airways: yes

Route

RCTP PILOX RCFN

ID Type Via Altitude Latitude Longitude Leg Dist Tot Dist Heading (true) Name
O RCTP APT - 0 ft / 0 m 25.07773˚ 121.23282˚ - 0 nm - Taiwan Taoyuan International
PILOX FIX - 14,700 ft / 4,481 m 24.41500˚ 121.02472˚ 41 nm 41 nm 196° / 196° -
O RCFN APT - 0 ft / 0 m 22.75487˚ 121.10165˚ 99 nm 141 nm 178° / 178° FENGNIN

Altitude Profile

Advertisement - Login to hide

RCTP

Details ICAO RCTP (TPE)
Name Taiwan Taoyuan International
Region Republic of China (Taiwan)
Timezone Asia/Taipei (UTC+8.0)
Stats Elevation 106 ft / 32 m (AMSL)
Location 25.077731° 121.232823°
Runways 2
Magnetic Variation 4.482° W

METAR

RCTP 251700Z 20008KT 9999 FEW020 26/24 Q1006 NOSIG RMK A2971

Decode

TAF

TAF RCTP 251100Z 2512/2618 25012KT 9999 FEW015 OVC032 TEMPO 2512/2518 22010KT FEW012 BKN022 BECMG 2602/2604 24016KT BECMG 2612/2614 23010KT FEW012 BKN020

Decode

Departure Runways

ID Width Length Bearing (true) Bearing (mag) Surface Threshold Offset Overrun Length
05 197 ft / 60 m 12,038 ft / 3,669 m 49.17° 53.65° Concrete 0 ft / 0 m 393 ft / 120 m
06 197 ft / 60 m 11,008 ft / 3,355 m 49.12° 53.60° Concrete 0 ft / 0 m 450 ft / 137 m
23 197 ft / 60 m 12,038 ft / 3,669 m 229.18° 233.66° Concrete 0 ft / 0 m 393 ft / 120 m
24 197 ft / 60 m 11,008 ft / 3,355 m 229.13° 233.61° Concrete 0 ft / 0 m 550 ft / 168 m

RCFN

Details ICAO RCFN (TTT)
Name FENGNIN
Region Republic of China (Taiwan)
Timezone Asia/Taipei (UTC+8.0)
Stats Elevation 143 ft / 44 m (AMSL)
Location 22.754872° 121.101650°
Runways 1
Magnetic Variation 3.942° W

METAR

Not found

TAF

TAF TAF RCFN 251100Z 2512/2612 17005KT 9999 FEW015 SCT025 BKN045 BECMG 2512/2514 34004KT BECMG 2600/2602 17006KT TEMPO 2606/2611 FEW010 FEW015TCU BKN025

Decode

Destination Runways

ID Width Length Bearing (true) Bearing (mag) Surface Threshold Offset Overrun Length
04 148 ft / 45 m 8,019 ft / 2,444 m 38.51° 42.45° Asphalt 0 ft / 0 m 750 ft / 229 m
22 148 ft / 45 m 8,019 ft / 2,444 m 218.52° 222.46° Asphalt 0 ft / 0 m 745 ft / 227 m

Popular Alternatives